Apple Valley, Minnesota
Current Conditions -  °F | °C
As of 9:26 AM on Wednesday 26 Nov 2014 (Local Time) from KLVN Reporting Station
Light Snow Light Snow  
Wind Chill: 12°   Ceiling: 900
Heat Index: 21°   Visibility: 2.5mi
Dew Point: 19°   Wind: 8mph
Humidity: 93%   Direction: 40°NE
Pressure: 30.13"   Gusts: NA
Location:  44.74°N, 93.22°W
Report Text: KLVN 261526Z AUTO 04007KT 2 1/2SM -SN OVC009 M06/M07 A3013 RMK AO2
Loading
Personal Weather Stations






























Interactive Weather Map New forecast layout! Learn more

10-Day Weather Forecast

Advertisements
Track Severe Weather on mobile